createdAt,value
2022-09-02T00:00:52.571Z,63.57
2022-09-02T00:01:53.203Z,63.62
2022-09-02T00:02:52.862Z,63.66
2022-09-02T00:03:53.527Z,64.18
2022-09-02T00:04:55.717Z,63.76
2022-09-02T00:05:55.423Z,64.70
2022-09-02T00:06:54.879Z,65.29
2022-09-02T00:07:56.623Z,65.56
2022-09-02T00:08:57.316Z,65.16
2022-09-02T00:09:58.004Z,65.24
2022-09-02T00:10:58.649Z,65.42
2022-09-02T00:11:58.503Z,66.00
2022-09-02T00:13:00.036Z,66.23
2022-09-02T00:14:00.552Z,67.03
2022-09-02T00:15:01.363Z,67.02
2022-09-02T00:16:01.932Z,67.02
2022-09-02T00:17:01.610Z,66.93
2022-09-02T00:18:01.789Z,67.41
2022-09-02T00:19:02.053Z,67.49
2022-09-02T00:20:03.769Z,67.54
2022-09-02T00:20:12.340Z,67.91
2022-09-02T00:21:13.818Z,67.96
2022-09-02T00:22:14.218Z,68.43
2022-09-02T00:23:15.022Z,68.90
2022-09-02T00:24:15.116Z,68.25
2022-09-02T00:25:15.825Z,67.55
2022-09-02T00:26:16.146Z,66.90
2022-09-02T00:27:16.905Z,67.45
2022-09-02T00:28:17.428Z,67.53
2022-09-02T00:29:16.722Z,69.03
2022-09-02T00:30:17.996Z,67.32
2022-09-02T00:31:18.465Z,67.57
2022-09-02T00:32:17.672Z,67.37
2022-09-02T00:33:19.678Z,67.70
2022-09-02T00:34:18.855Z,68.44
2022-09-02T00:35:20.405Z,69.25
2022-09-02T00:36:20.926Z,67.74
2022-09-02T00:37:21.763Z,66.73
2022-09-02T00:38:21.108Z,67.33
2022-09-02T00:39:22.435Z,67.73
2022-09-02T00:39:31.905Z,68.39
2022-09-02T00:40:33.465Z,68.33
2022-09-02T00:41:33.177Z,66.91
2022-09-02T00:42:34.720Z,66.89
2022-09-02T00:43:35.333Z,66.35
2022-09-02T00:44:35.522Z,66.55
2022-09-02T00:45:35.757Z,67.38
2022-09-02T00:46:35.227Z,67.63
2022-09-02T00:47:36.410Z,67.27
2022-09-02T00:48:36.371Z,68.03
2022-09-02T00:49:37.961Z,67.04
2022-09-02T00:50:38.262Z,66.01
2022-09-02T00:51:38.894Z,66.26
2022-09-02T00:52:39.172Z,67.04
2022-09-02T00:53:39.822Z,67.22
2022-09-02T00:54:40.153Z,67.41
2022-09-02T00:55:40.296Z,68.18
2022-09-02T00:56:41.156Z,67.65
2022-09-02T00:57:41.693Z,66.60
2022-09-02T00:58:42.658Z,66.45
2022-09-02T00:58:51.231Z,66.52
2022-09-02T00:59:52.476Z,66.46
2022-09-02T01:00:53.061Z,65.97
2022-09-02T01:01:52.450Z,66.48
2022-09-02T01:02:53.065Z,67.21
2022-09-02T01:03:53.561Z,66.08
2022-09-02T01:04:54.930Z,66.02
2022-09-02T01:05:55.631Z,66.24
2022-09-02T01:06:56.571Z,66.42
2022-09-02T01:07:57.169Z,66.81
2022-09-02T01:08:57.696Z,66.99
2022-09-02T01:09:58.087Z,67.12
2022-09-02T01:10:58.176Z,67.93
2022-09-02T01:11:59.173Z,67.85
2022-09-02T01:12:59.435Z,67.82
2022-09-02T01:14:00.071Z,68.06
2022-09-02T01:15:00.425Z,68.50
2022-09-02T01:16:00.607Z,68.47
2022-09-02T01:16:59.917Z,69.60
2022-09-02T01:18:01.331Z,68.75
2022-09-02T01:18:09.982Z,68.81
2022-09-02T01:19:11.798Z,68.82
2022-09-02T01:20:12.397Z,69.10
2022-09-02T01:21:12.895Z,70.20
2022-09-02T01:22:13.539Z,69.91
2022-09-02T01:23:13.613Z,70.64
2022-09-02T01:24:13.298Z,70.75
2022-09-02T01:25:14.720Z,71.24
2022-09-02T01:26:14.832Z,70.74
2022-09-02T01:27:15.648Z,70.74
2022-09-02T01:28:16.373Z,70.82
2022-09-02T01:29:16.638Z,70.60
2022-09-02T01:30:17.100Z,70.85
2022-09-02T01:31:17.473Z,70.61
2022-09-02T01:32:16.671Z,70.37
2022-09-02T01:33:18.000Z,70.82
2022-09-02T01:34:17.262Z,70.98
2022-09-02T01:35:18.538Z,71.42
2022-09-02T01:36:18.893Z,71.43
2022-09-02T01:37:19.613Z,71.55
2022-09-02T01:37:28.259Z,72.47
2022-09-02T01:38:28.856Z,72.46
2022-09-02T01:39:30.171Z,71.69
2022-09-02T01:40:31.001Z,71.73
2022-09-02T01:41:30.178Z,71.45
2022-09-02T01:42:31.441Z,71.51
2022-09-02T01:43:31.915Z,71.80
2022-09-02T01:44:32.360Z,72.54
2022-09-02T01:45:32.387Z,71.68
2022-09-02T01:46:33.342Z,71.23
2022-09-02T01:47:32.670Z,71.11
2022-09-02T01:48:33.883Z,71.31
2022-09-02T01:49:35.327Z,70.88
2022-09-02T01:50:33.961Z,70.64
2022-09-02T01:51:35.784Z,70.79
2022-09-02T01:52:36.353Z,70.45
2022-09-02T01:53:36.629Z,70.50
2022-09-02T01:54:37.413Z,70.26
2022-09-02T01:55:36.907Z,70.51
2022-09-02T01:56:38.221Z,70.36
2022-09-02T01:56:46.820Z,70.44
2022-09-02T01:57:48.235Z,70.42
2022-09-02T01:58:48.871Z,71.08
2022-09-02T01:59:49.236Z,70.70
2022-09-02T02:00:50.028Z,70.79
2022-09-02T02:01:49.742Z,70.73
2022-09-02T02:02:50.087Z,70.92
2022-09-02T02:03:50.825Z,71.63
2022-09-02T02:04:52.025Z,70.95
2022-09-02T02:05:52.986Z,71.39
2022-09-02T02:06:53.460Z,71.69
2022-09-02T02:07:52.960Z,71.81
2022-09-02T02:08:54.161Z,72.38
2022-09-02T02:09:55.054Z,72.31
2022-09-02T02:10:54.717Z,72.37
2022-09-02T02:11:56.290Z,73.05
2022-09-02T02:12:56.827Z,73.86
2022-09-02T02:13:57.217Z,73.78
2022-09-02T02:14:57.664Z,77.28
2022-09-02T02:15:57.557Z,79.31
2022-09-02T02:16:58.328Z,76.09
2022-09-02T02:17:59.220Z,76.00
2022-09-02T02:19:00.326Z,76.11
2022-09-02T02:19:08.923Z,76.32
2022-09-02T02:20:09.256Z,76.15
2022-09-02T02:21:11.034Z,74.63
2022-09-02T02:22:11.119Z,75.06
2022-09-02T02:23:11.679Z,75.21
2022-09-02T02:24:12.352Z,73.96
2022-09-02T02:25:12.792Z,73.85
2022-09-02T02:26:13.472Z,73.74
2022-09-02T02:27:13.586Z,74.21
2022-09-02T02:28:14.235Z,73.52
2022-09-02T02:29:14.388Z,73.91
2022-09-02T02:30:13.986Z,73.11
2022-09-02T02:31:15.783Z,73.70
2022-09-02T02:32:15.308Z,74.06
2022-09-02T02:33:17.161Z,73.37
2022-09-02T02:34:17.510Z,73.94
2022-09-02T02:35:17.819Z,74.49
2022-09-02T02:36:18.280Z,74.80
2022-09-02T02:37:22.145Z,73.55
2022-09-02T02:37:28.070Z,73.56
2022-09-02T02:38:28.061Z,73.68
2022-09-02T02:39:29.034Z,73.81
2022-09-02T02:40:30.961Z,74.58
2022-09-02T02:41:30.601Z,74.01
2022-09-02T02:42:31.948Z,74.13
2022-09-02T02:43:32.677Z,73.93
2022-09-02T02:44:33.005Z,73.84
2022-09-02T02:45:33.633Z,73.43
2022-09-02T02:46:34.373Z,73.84
2022-09-02T02:47:34.212Z,73.60
2022-09-02T02:48:34.292Z,73.29
2022-09-02T02:49:36.025Z,72.97
2022-09-02T02:50:35.363Z,73.17
2022-09-02T02:51:37.184Z,74.20
2022-09-02T02:52:37.883Z,75.17
2022-09-02T02:53:38.559Z,75.88
2022-09-02T02:54:37.799Z,76.47
2022-09-02T02:55:38.129Z,77.49
2022-09-02T02:56:40.003Z,78.06
2022-09-02T02:57:40.812Z,78.05
2022-09-02T02:58:40.793Z,78.84
2022-09-02T02:58:49.414Z,80.13
2022-09-02T02:59:49.942Z,80.49
2022-09-02T03:00:50.908Z,80.80
2022-09-02T03:01:51.871Z,80.94
2022-09-02T03:02:52.784Z,81.07
2022-09-02T03:03:52.726Z,81.17
2022-09-02T03:04:54.285Z,81.73
2022-09-02T03:05:53.837Z,81.45
2022-09-02T03:06:54.888Z,81.63
2022-09-02T03:07:55.038Z,82.21
2022-09-02T03:08:55.419Z,82.65
2022-09-02T03:09:54.870Z,82.80
2022-09-02T03:10:55.535Z,83.46
2022-09-02T03:11:56.166Z,83.45
2022-09-02T03:12:57.620Z,83.33
2022-09-02T03:13:58.106Z,83.82
2022-09-02T03:14:59.071Z,84.23
2022-09-02T03:15:59.564Z,84.82
2022-09-02T03:16:59.409Z,84.93
2022-09-02T03:17:59.996Z,84.96
2022-09-02T03:19:01.031Z,84.97
2022-09-02T03:20:01.742Z,85.28
2022-09-02T03:21:02.278Z,85.61
2022-09-02T03:21:11.453Z,85.38
2022-09-02T03:22:13.085Z,85.79
2022-09-02T03:23:14.095Z,86.06
2022-09-02T03:24:13.786Z,86.00
2022-09-02T03:25:14.366Z,85.71
2022-09-02T03:26:14.879Z,85.95
2022-09-02T03:27:15.829Z,86.36
2022-09-02T03:28:17.722Z,86.84
2022-09-02T03:29:18.015Z,86.60
2022-09-02T03:30:18.587Z,86.81
2022-09-02T03:31:19.312Z,86.54
2022-09-02T03:32:19.204Z,86.41
2022-09-02T03:33:20.843Z,86.59
2022-09-02T03:34:20.724Z,86.79
2022-09-02T03:35:22.138Z,86.42
2022-09-02T03:36:22.821Z,86.76
2022-09-02T03:37:23.007Z,86.93
2022-09-02T03:38:23.627Z,86.55
2022-09-02T03:39:23.999Z,86.65
2022-09-02T03:40:24.470Z,86.47
2022-09-02T03:41:23.601Z,86.41
2022-09-02T03:42:25.453Z,86.41
2022-09-02T03:42:36.083Z,86.16
2022-09-02T03:43:36.576Z,86.52
2022-09-02T03:44:38.351Z,86.44
2022-09-02T03:45:39.389Z,86.40
2022-09-02T03:46:38.596Z,86.50
2022-09-02T03:47:39.585Z,86.49
2022-09-02T03:48:39.862Z,86.60
2022-09-02T03:49:40.704Z,86.72
2022-09-02T03:50:41.009Z,87.01
2022-09-02T03:51:42.655Z,87.67
2022-09-02T03:52:43.498Z,87.28
2022-09-02T03:53:42.774Z,87.45
2022-09-02T03:54:43.774Z,87.24
2022-09-02T03:55:44.451Z,87.50
2022-09-02T03:56:43.813Z,87.76
2022-09-02T03:57:44.200Z,87.47
2022-09-02T03:58:45.895Z,87.79
2022-09-02T03:59:45.376Z,87.98
2022-09-02T04:00:47.160Z,88.48
2022-09-02T04:01:46.850Z,88.78
2022-09-02T04:02:47.434Z,88.77
2022-09-02T04:03:47.898Z,88.69
2022-09-02T04:04:49.300Z,88.71
2022-09-02T04:05:50.165Z,88.68
2022-09-02T04:05:58.785Z,89.00
2022-09-02T04:06:59.594Z,89.51
2022-09-02T04:08:00.877Z,89.32
2022-09-02T04:09:01.194Z,89.61
2022-09-02T04:10:00.449Z,89.58
2022-09-02T04:11:01.765Z,89.49
2022-09-02T04:12:02.440Z,89.55
2022-09-02T04:13:02.599Z,89.68
2022-09-02T04:14:02.803Z,89.81
2022-09-02T04:15:03.634Z,89.25
2022-09-02T04:16:03.107Z,89.17
2022-09-02T04:17:03.849Z,89.36
2022-09-02T04:18:04.153Z,89.51
2022-09-02T04:19:04.153Z,89.77
2022-09-02T04:20:04.450Z,89.71
2022-09-02T04:21:06.138Z,89.87
2022-09-02T04:22:07.095Z,90.43
2022-09-02T04:23:07.393Z,90.29
2022-09-02T04:24:07.524Z,90.20
2022-09-02T04:25:07.671Z,90.18
2022-09-02T04:26:08.578Z,90.76
2022-09-02T04:27:08.100Z,90.52
2022-09-02T04:27:16.715Z,89.98
2022-09-02T04:28:17.095Z,90.35
2022-09-02T04:29:52.982Z,90.65
2022-09-02T04:30:53.731Z,91.53
2022-09-02T04:31:53.309Z,91.78
2022-09-02T04:32:54.926Z,91.72
2022-09-02T04:34:36.847Z,90.59
2022-09-02T04:35:40.938Z,90.36
2022-09-02T04:38:12.696Z,91.03
2022-09-02T04:39:34.393Z,91.57
2022-09-02T04:40:35.222Z,91.81
2022-09-02T04:41:34.824Z,92.28
2022-09-02T04:42:36.126Z,92.73
2022-09-02T04:43:35.677Z,93.06
2022-09-02T04:44:36.935Z,92.49
2022-09-02T04:45:37.316Z,93.08
2022-09-02T04:46:37.576Z,92.57
2022-09-02T04:47:37.323Z,92.85
2022-09-02T04:48:38.806Z,93.33
2022-09-02T04:49:38.269Z,92.67
2022-09-02T04:50:39.710Z,92.94
2022-09-02T04:50:49.386Z,92.11
2022-09-02T04:51:49.628Z,92.47
2022-09-02T04:52:51.306Z,93.45
2022-09-02T04:53:52.006Z,93.22
2022-09-02T04:54:51.127Z,92.75
2022-09-02T04:55:57.787Z,93.07
2022-09-02T04:56:52.337Z,93.47
2022-09-02T04:57:53.777Z,93.55
2022-09-02T04:58:53.783Z,93.57
2022-09-02T04:59:54.177Z,93.60
2022-09-02T05:00:54.751Z,93.47
2022-09-02T05:01:54.223Z,93.32
2022-09-02T05:02:55.082Z,93.87
2022-09-02T05:04:06.711Z,93.06
2022-09-02T05:05:07.825Z,92.99
2022-09-02T05:06:06.799Z,93.22
2022-09-02T05:08:21.077Z,92.96
2022-09-02T05:13:03.268Z,93.28
2022-09-02T05:14:02.612Z,94.66
2022-09-02T05:15:16.454Z,94.67
2022-09-02T05:16:27.449Z,94.32
2022-09-02T05:19:14.660Z,93.50
2022-09-02T05:20:56.308Z,92.50
2022-09-02T05:21:04.914Z,92.35
2022-09-02T05:22:05.081Z,92.58
2022-09-02T05:23:15.244Z,92.92
2022-09-02T05:24:15.067Z,92.14
2022-09-02T05:25:16.761Z,92.78
2022-09-02T05:26:16.972Z,92.10
2022-09-02T05:27:17.403Z,92.33
2022-09-02T05:28:16.822Z,92.59
2022-09-02T05:29:18.310Z,92.99
2022-09-02T05:30:18.905Z,93.81
2022-09-02T05:31:19.932Z,94.56
2022-09-02T05:32:19.626Z,94.20
2022-09-02T05:33:21.042Z,93.80
2022-09-02T05:34:21.740Z,93.39
2022-09-02T05:35:21.831Z,94.06
2022-09-02T05:36:22.019Z,94.11
2022-09-02T05:37:22.645Z,94.01
2022-09-02T05:38:22.445Z,93.19
2022-09-02T05:39:24.320Z,94.71
2022-09-02T05:40:23.947Z,95.86
2022-09-02T05:41:24.368Z,96.16
2022-09-02T05:41:33.028Z,95.88
2022-09-02T05:42:33.964Z,96.50
2022-09-02T05:43:34.247Z,96.47
2022-09-02T05:44:34.832Z,95.77
2022-09-02T05:45:36.890Z,96.28
2022-09-02T05:46:35.997Z,96.14
2022-09-02T05:47:36.878Z,95.60
2022-09-02T05:48:38.065Z,94.87
2022-09-02T05:49:37.332Z,94.04
2022-09-02T05:50:39.322Z,93.31
2022-09-02T05:51:40.244Z,93.24
2022-09-02T05:52:40.827Z,92.85
2022-09-02T05:53:41.596Z,92.72
2022-09-02T05:54:41.081Z,92.78
2022-09-02T05:55:42.537Z,92.60
2022-09-02T05:56:45.229Z,92.86
2022-09-02T05:57:42.724Z,91.75
2022-09-02T05:58:43.997Z,90.91
2022-09-02T05:59:44.318Z,89.46
2022-09-02T06:00:44.241Z,88.38
2022-09-02T06:01:49.858Z,85.97
2022-09-02T06:02:48.907Z,83.22
2022-09-02T06:02:57.536Z,80.56
2022-09-02T06:03:58.213Z,80.77
2022-09-02T06:05:00.079Z,80.84
2022-09-02T06:06:04.511Z,78.43
2022-09-02T06:09:51.231Z,76.30
2022-09-02T06:11:19.544Z,68.19
2022-09-02T06:12:19.803Z,66.37
2022-09-02T06:13:20.188Z,63.62
2022-09-02T06:14:19.573Z,62.50
2022-09-02T06:15:21.016Z,61.12
2022-09-02T06:16:21.341Z,59.75
2022-09-02T06:17:20.949Z,58.27
2022-09-02T06:18:21.467Z,57.56
2022-09-02T06:19:21.832Z,57.25
2022-09-02T06:20:21.872Z,57.70
2022-09-02T06:21:23.022Z,57.32
2022-09-02T06:22:22.403Z,56.63
2022-09-02T06:23:23.648Z,56.91
2022-09-02T06:24:22.626Z,56.78
2022-09-02T06:25:23.781Z,57.09
2022-09-02T06:26:23.010Z,56.87
2022-09-02T06:27:23.187Z,56.40
2022-09-02T06:27:31.821Z,57.29
2022-09-02T06:28:32.408Z,57.26
2022-09-02T06:29:33.963Z,56.75
2022-09-02T06:30:34.284Z,57.17
2022-09-02T06:31:35.082Z,58.51
2022-09-02T06:32:34.356Z,60.34
2022-09-02T06:33:35.628Z,59.92
2022-09-02T06:34:35.137Z,60.73
2022-09-02T06:35:36.723Z,62.64
2022-09-02T06:36:37.369Z,62.08
2022-09-02T06:37:37.462Z,60.70
2022-09-02T06:38:37.507Z,61.19
2022-09-02T06:39:37.779Z,60.11
2022-09-02T06:40:38.045Z,60.05
2022-09-02T06:41:37.260Z,59.56
2022-09-02T06:42:38.960Z,60.11
2022-09-02T06:43:42.692Z,59.28
2022-09-02T06:44:39.122Z,58.86
2022-09-02T06:45:40.430Z,58.95
2022-09-02T06:46:39.736Z,59.57
2022-09-02T06:46:54.311Z,59.57
2022-09-02T06:47:51.945Z,59.39
2022-09-02T06:48:52.658Z,58.90
2022-09-02T06:49:53.647Z,58.70
2022-09-02T06:50:53.332Z,57.83
2022-09-02T06:51:53.577Z,57.67
2022-09-02T06:52:55.027Z,56.75
2022-09-02T06:53:55.676Z,56.13
2022-09-02T06:54:56.015Z,56.68
2022-09-02T06:55:56.136Z,57.35
2022-09-02T06:56:57.103Z,56.67
2022-09-02T06:57:56.832Z,55.89
2022-09-02T06:58:58.118Z,55.52
2022-09-02T07:00:01.864Z,56.14
2022-09-02T07:00:57.787Z,56.28
2022-09-02T07:01:57.978Z,56.20
2022-09-02T07:02:57.927Z,55.50
2022-09-02T07:04:02.180Z,55.17
2022-09-02T07:04:58.447Z,55.14
2022-09-02T07:05:58.419Z,54.66
2022-09-02T07:07:00.036Z,55.04
2022-09-02T07:07:59.332Z,55.06
2022-09-02T07:08:07.969Z,55.20
2022-09-02T07:09:08.002Z,55.62
2022-09-02T07:10:09.187Z,57.06
2022-09-02T07:11:08.399Z,56.31
2022-09-02T07:12:08.846Z,56.51
2022-09-02T07:13:10.792Z,56.51
2022-09-02T07:14:09.983Z,56.25
2022-09-02T07:15:10.425Z,55.99
2022-09-02T07:16:10.996Z,55.01
2022-09-02T07:17:11.726Z,55.68
2022-09-02T07:18:12.127Z,55.48
2022-09-02T07:19:17.241Z,54.91
2022-09-02T07:20:13.193Z,54.40
2022-09-02T07:21:13.754Z,54.33
2022-09-02T07:22:14.617Z,54.20
2022-09-02T07:23:14.810Z,52.97
2022-09-02T07:24:14.931Z,52.49
2022-09-02T07:25:15.410Z,51.17
2022-09-02T07:26:15.911Z,50.68
2022-09-02T07:27:17.148Z,50.22
2022-09-02T07:28:17.508Z,48.62
2022-09-02T07:29:18.330Z,49.91
2022-09-02T07:30:19.185Z,48.64
2022-09-02T07:31:19.640Z,48.63
2022-09-02T07:32:18.853Z,47.49
2022-09-02T07:33:20.492Z,46.75
2022-09-02T07:33:29.378Z,46.39
2022-09-02T07:34:30.657Z,46.42
2022-09-02T07:35:30.890Z,45.74
2022-09-02T07:36:31.581Z,44.77
2022-09-02T07:37:31.676Z,43.63
2022-09-02T07:38:30.934Z,43.71
2022-09-02T07:39:31.122Z,42.94
2022-09-02T07:40:32.402Z,42.72
2022-09-02T07:41:31.754Z,42.06
2022-09-02T07:42:32.857Z,42.00
2022-09-02T07:43:32.992Z,41.29
2022-09-02T07:44:33.725Z,40.63
2022-09-02T07:45:34.068Z,40.95
2022-09-02T07:46:33.853Z,41.44
2022-09-02T07:47:35.111Z,41.47
2022-09-02T07:48:34.692Z,41.70
2022-09-02T07:50:35.660Z,41.29
2022-09-02T07:51:37.043Z,41.45
2022-09-02T07:52:36.490Z,41.94
2022-09-02T07:53:38.478Z,42.44
2022-09-02T07:53:49.167Z,42.10
2022-09-02T07:54:50.624Z,42.07
2022-09-02T07:55:49.730Z,41.93
2022-09-02T07:56:51.485Z,41.55
2022-09-02T07:57:50.799Z,41.90
2022-09-02T07:58:51.407Z,41.82
2022-09-02T07:59:53.235Z,41.43
2022-09-02T08:00:53.494Z,41.37
2022-09-02T08:01:52.475Z,41.52
2022-09-02T08:02:54.022Z,42.12
2022-09-02T08:03:53.625Z,42.10
2022-09-02T08:04:55.540Z,42.04
2022-09-02T08:05:56.061Z,42.06
2022-09-02T08:06:56.824Z,41.95
2022-09-02T08:07:57.191Z,41.71
2022-09-02T08:08:57.377Z,42.08
2022-09-02T08:09:58.238Z,42.04
2022-09-02T08:10:57.987Z,42.61
2022-09-02T08:11:58.607Z,42.20
2022-09-02T08:13:00.004Z,42.87
2022-09-02T08:14:00.523Z,42.70
2022-09-02T08:15:00.450Z,43.11
2022-09-02T08:16:32.683Z,42.98
2022-09-02T08:17:33.243Z,43.01
2022-09-02T08:18:34.952Z,43.98
2022-09-02T08:19:34.398Z,44.56
2022-09-02T08:20:35.232Z,45.34
2022-09-02T08:21:35.325Z,44.98
2022-09-02T08:22:36.877Z,44.91
2022-09-02T08:23:37.726Z,44.53
2022-09-02T08:24:36.883Z,44.74
2022-09-02T08:25:38.300Z,45.22
2022-09-02T08:26:37.539Z,45.06
2022-09-02T08:27:37.866Z,44.98
2022-09-02T08:28:38.346Z,45.47
2022-09-02T08:29:38.721Z,45.46
2022-09-02T08:30:40.307Z,45.44
2022-09-02T08:31:40.465Z,45.83
2022-09-02T08:32:39.952Z,45.91
2022-09-02T08:33:41.626Z,46.16
2022-09-02T08:34:42.002Z,46.04
2022-09-02T08:35:42.749Z,45.66
2022-09-02T08:36:42.823Z,45.43
2022-09-02T08:37:42.010Z,45.87
2022-09-02T08:37:50.945Z,45.78
2022-09-02T08:38:51.667Z,45.94
2022-09-02T08:39:53.080Z,45.85
2022-09-02T08:40:53.550Z,46.41
2022-09-02T08:41:52.694Z,46.66
2022-09-02T08:42:52.868Z,46.86
2022-09-02T08:43:54.176Z,46.93
2022-09-02T08:44:54.752Z,46.66
2022-09-02T08:45:54.554Z,46.85
2022-09-02T08:46:54.635Z,46.88
2022-09-02T08:47:55.159Z,46.89
2022-09-02T08:48:55.398Z,46.64
2022-09-02T08:49:56.787Z,47.24
2022-09-02T08:50:57.654Z,47.41
2022-09-02T08:52:00.866Z,46.83
2022-09-02T08:52:58.060Z,46.41
2022-09-02T08:53:58.525Z,46.81
2022-09-02T08:54:59.206Z,47.39
2022-09-02T08:56:00.765Z,47.61
2022-09-02T08:57:01.660Z,47.49
2022-09-02T08:58:02.281Z,47.49
2022-09-02T08:59:01.345Z,47.46
2022-09-02T08:59:10.062Z,48.27
2022-09-02T09:00:10.958Z,48.34
2022-09-02T09:01:11.107Z,48.37
2022-09-02T09:02:11.385Z,47.90
2022-09-02T09:03:11.942Z,48.33
2022-09-02T09:04:12.648Z,47.52
2022-09-02T09:05:14.485Z,47.54
2022-09-02T09:06:15.031Z,47.56
2022-09-02T09:07:15.696Z,48.26
2022-09-02T09:08:15.964Z,48.20
2022-09-02T09:09:15.029Z,48.36
2022-09-02T09:10:16.659Z,48.32
2022-09-02T09:11:16.848Z,48.19
2022-09-02T09:12:16.666Z,48.22
2022-09-02T09:13:18.323Z,47.89
2022-09-02T09:14:18.562Z,47.71
2022-09-02T09:15:19.347Z,48.08
2022-09-02T09:16:19.863Z,47.82
2022-09-02T09:17:19.587Z,48.32
2022-09-02T09:18:20.912Z,48.29
2022-09-02T09:19:20.442Z,48.15
2022-09-02T09:19:29.059Z,48.60
2022-09-02T09:20:29.410Z,48.59
2022-09-02T09:21:30.795Z,48.16
2022-09-02T09:22:30.327Z,48.41
2022-09-02T09:23:34.278Z,48.07
2022-09-02T09:24:31.288Z,48.29
2022-09-02T09:25:31.842Z,47.90
2022-09-02T09:26:33.696Z,47.48
2022-09-02T09:27:34.198Z,47.66
2022-09-02T09:28:34.412Z,48.25
2022-09-02T09:29:33.791Z,48.71
2022-09-02T09:30:35.575Z,48.05
2022-09-02T09:31:36.370Z,47.74
2022-09-02T09:32:35.750Z,48.28
2022-09-02T09:33:36.781Z,47.97
2022-09-02T09:34:36.774Z,48.44
2022-09-02T09:35:37.284Z,48.31
2022-09-02T09:36:36.685Z,47.90
2022-09-02T09:37:37.800Z,48.04
2022-09-02T09:38:37.106Z,47.73
2022-09-02T09:39:38.241Z,47.80
2022-09-02T09:40:37.598Z,47.30
2022-09-02T09:40:46.183Z,47.74
2022-09-02T09:41:46.690Z,47.70
2022-09-02T09:42:50.012Z,47.44
2022-09-02T09:43:47.523Z,47.70
2022-09-02T09:44:48.381Z,47.60
2022-09-02T09:45:49.576Z,48.09
2022-09-02T09:46:48.813Z,48.78
2022-09-02T09:47:49.122Z,48.28
2022-09-02T09:48:49.225Z,47.68
2022-09-02T09:49:50.784Z,47.53
2022-09-02T09:50:49.819Z,47.36
2022-09-02T09:51:50.625Z,47.58
2022-09-02T09:52:51.395Z,48.43
2022-09-02T09:53:53.127Z,47.68
2022-09-02T09:54:53.162Z,47.75
2022-09-02T09:55:53.611Z,47.27
2022-09-02T09:56:54.131Z,47.09
2022-09-02T09:57:53.613Z,46.85
2022-09-02T09:58:54.135Z,46.66
2022-09-02T09:59:54.519Z,46.82
2022-09-02T10:00:54.940Z,46.82
2022-09-02T10:01:55.907Z,46.09
2022-09-02T10:02:56.448Z,46.80
2022-09-02T10:03:58.169Z,46.11
2022-09-02T10:04:59.059Z,45.20
2022-09-02T10:05:15.169Z,44.53
2022-09-02T10:06:15.733Z,44.37
2022-09-02T10:07:17.062Z,43.73
2022-09-02T10:08:16.444Z,44.30
2022-09-02T10:09:17.872Z,43.65
2022-09-02T10:10:19.411Z,43.76
2022-09-02T10:11:17.898Z,43.48
2022-09-02T10:12:19.245Z,43.76
2022-09-02T10:14:20.071Z,44.27
2022-09-02T10:15:19.386Z,43.90
2022-09-02T10:16:20.169Z,43.67
2022-09-02T10:17:20.555Z,43.15
2022-09-02T10:18:21.129Z,42.65
2022-09-02T10:19:21.366Z,43.07
2022-09-02T10:20:23.045Z,43.64
2022-09-02T10:21:23.288Z,43.22
2022-09-02T10:22:24.264Z,43.33
2022-09-02T10:23:23.475Z,42.95
2022-09-02T10:24:23.830Z,43.20
2022-09-02T10:25:25.553Z,42.56
2022-09-02T10:27:26.747Z,42.86
2022-09-02T10:27:35.512Z,42.48
2022-09-02T10:28:35.685Z,42.55
2022-09-02T10:29:36.714Z,42.40
2022-09-02T10:30:37.158Z,41.91
2022-09-02T10:31:37.587Z,41.97
2022-09-02T10:32:37.005Z,41.99
2022-09-02T10:33:38.118Z,42.79
2022-09-02T10:34:37.463Z,41.71
2022-09-02T10:35:38.904Z,41.70
2022-09-02T10:36:38.925Z,41.88
2022-09-02T10:37:39.763Z,41.72
2022-09-02T10:38:38.985Z,42.32
2022-09-02T10:39:40.386Z,42.75
2022-09-02T10:40:39.607Z,42.14
2022-09-02T10:41:39.987Z,42.27
2022-09-02T10:42:40.255Z,41.90
2022-09-02T10:43:41.508Z,41.21
2022-09-02T10:44:42.510Z,41.19
2022-09-02T10:45:42.180Z,40.91
2022-09-02T10:46:43.792Z,41.08
2022-09-02T10:47:42.954Z,41.12
2022-09-02T10:48:43.095Z,40.78
2022-09-02T10:48:51.732Z,40.81
2022-09-02T10:49:51.982Z,40.99
2022-09-02T10:50:53.249Z,40.87
2022-09-02T10:51:52.222Z,40.45
2022-09-02T10:52:53.292Z,40.46
2022-09-02T10:53:52.708Z,40.61
2022-09-02T10:54:54.290Z,41.09
2022-09-02T10:55:53.881Z,40.81
2022-09-02T10:56:55.729Z,41.33
2022-09-02T10:57:56.192Z,41.00
2022-09-02T10:58:55.551Z,40.95
2022-09-02T10:59:56.391Z,41.06
2022-09-02T11:00:57.265Z,41.57
2022-09-02T11:01:57.447Z,41.22
2022-09-02T11:02:59.092Z,41.25
2022-09-02T11:03:58.457Z,40.69
2022-09-02T11:04:58.976Z,40.75
2022-09-02T11:06:00.686Z,40.90
2022-09-02T11:07:03.323Z,40.74
2022-09-02T11:08:00.888Z,40.97
2022-09-02T11:09:02.339Z,41.36
2022-09-02T11:10:01.817Z,41.26
2022-09-02T11:11:02.109Z,41.18
2022-09-02T11:12:03.953Z,41.58
2022-09-02T11:12:13.609Z,41.05
2022-09-02T11:13:14.605Z,41.41
2022-09-02T11:14:15.635Z,41.38
2022-09-02T11:15:14.806Z,40.67
2022-09-02T11:16:15.615Z,41.40
2022-09-02T11:17:15.839Z,41.05
2022-09-02T11:18:16.463Z,41.07
2022-09-02T11:19:16.576Z,41.43
2022-09-02T11:20:18.187Z,41.60
2022-09-02T11:21:18.998Z,41.75
2022-09-02T11:22:18.384Z,41.97
2022-09-02T11:23:19.098Z,41.19
2022-09-02T11:24:19.317Z,40.88
2022-09-02T11:25:21.235Z,40.53
2022-09-02T11:26:20.747Z,41.07
2022-09-02T11:27:32.438Z,40.97
2022-09-02T11:28:20.900Z,41.27
2022-09-02T11:29:22.736Z,41.14
2022-09-02T11:30:23.055Z,41.62
2022-09-02T11:31:22.422Z,41.98
2022-09-02T11:32:22.862Z,41.44
2022-09-02T11:33:23.408Z,41.95
2022-09-02T11:34:23.606Z,41.95
2022-09-02T11:35:25.403Z,42.36
2022-09-02T11:36:26.403Z,41.94
2022-09-02T11:37:26.322Z,41.76
2022-09-02T11:37:34.961Z,41.96
2022-09-02T11:38:36.563Z,42.12
2022-09-02T11:39:52.591Z,42.02
2022-09-02T11:40:36.576Z,42.39
2022-09-02T11:41:37.645Z,43.40
2022-09-02T11:42:36.898Z,42.61
2022-09-02T11:43:37.581Z,42.19
2022-09-02T11:44:38.993Z,41.31
2022-09-02T11:45:39.727Z,42.08
2022-09-02T11:46:39.370Z,41.33
2022-09-02T11:47:40.181Z,41.79
2022-09-02T11:48:40.866Z,40.84
2022-09-02T11:49:41.504Z,40.90
2022-09-02T11:50:42.252Z,40.71
2022-09-02T11:51:44.114Z,41.26
2022-09-02T11:52:43.540Z,41.09
2022-09-02T11:53:43.883Z,41.53
2022-09-02T11:54:45.529Z,41.14
2022-09-02T11:55:45.312Z,41.44
2022-09-02T11:56:45.853Z,42.15
2022-09-02T11:57:47.338Z,41.15
2022-09-02T11:58:46.722Z,41.38
2022-09-02T11:59:47.070Z,40.77
2022-09-02T12:00:47.546Z,40.19
2022-09-02T12:01:48.787Z,40.38
2022-09-02T12:01:58.486Z,40.23
2022-09-02T12:03:02.568Z,40.22
2022-09-02T12:04:55.751Z,39.95
2022-09-02T12:05:01.758Z,39.70
2022-09-02T12:06:01.168Z,40.05
2022-09-02T12:07:08.245Z,40.25
2022-09-02T12:08:02.216Z,41.05
2022-09-02T12:09:03.306Z,40.42
2022-09-02T12:10:02.593Z,40.21
2022-09-02T12:11:03.088Z,40.98
2022-09-02T12:12:04.988Z,41.62
2022-09-02T12:13:08.360Z,42.05
2022-09-02T12:14:07.786Z,41.17
2022-09-02T12:15:06.036Z,41.15
2022-09-02T12:16:06.132Z,41.15
2022-09-02T12:17:06.425Z,41.06
2022-09-02T12:18:07.655Z,41.58
2022-09-02T12:19:08.195Z,41.86
2022-09-02T12:20:08.015Z,41.26
2022-09-02T12:21:08.047Z,41.12
2022-09-02T12:22:08.532Z,41.90
2022-09-02T12:23:08.791Z,41.70
2022-09-02T12:24:10.600Z,40.97
2022-09-02T12:25:11.307Z,41.64
2022-09-02T12:26:15.794Z,40.71
2022-09-02T12:26:19.966Z,40.68
2022-09-02T12:27:20.881Z,40.72
2022-09-02T12:28:24.227Z,40.59
2022-09-02T12:29:21.282Z,40.40
2022-09-02T12:30:21.741Z,39.80
2022-09-02T12:31:23.699Z,40.07
2022-09-02T12:32:23.039Z,39.93
2022-09-02T12:33:24.114Z,40.21
2022-09-02T12:34:24.245Z,40.74
2022-09-02T12:35:24.895Z,40.32
2022-09-02T12:36:24.704Z,40.56
2022-09-02T12:37:25.567Z,40.65
2022-09-02T12:38:27.042Z,40.72
2022-09-02T12:39:27.210Z,40.34
2022-09-02T12:40:31.333Z,40.76
2022-09-02T12:41:28.656Z,39.97
2022-09-02T12:42:29.200Z,40.39
2022-09-02T12:43:31.095Z,40.89
2022-09-02T12:44:30.188Z,40.40
2022-09-02T12:45:30.580Z,40.42
2022-09-02T12:46:31.052Z,40.54
2022-09-02T12:47:31.233Z,40.02
2022-09-02T12:48:38.428Z,39.93
2022-09-02T12:49:32.505Z,40.04